createdAt,value
2019-01-17T00:01:23.425Z,1.27
2019-01-17T00:04:26.273Z,1.10
2019-01-17T00:07:39.515Z,1.37
2019-01-17T00:10:17.637Z,1.47
2019-01-17T00:13:05.633Z,1.07
2019-01-17T00:15:55.546Z,1.23
2019-01-17T00:18:37.312Z,1.30
2019-01-17T00:21:24.662Z,1.10
2019-01-17T00:24:12.676Z,1.03
2019-01-17T00:27:02.905Z,1.20
2019-01-17T00:29:49.528Z,1.30
2019-01-17T00:32:39.789Z,1.30
2019-01-17T00:35:26.990Z,1.03
2019-01-17T00:38:33.346Z,1.30
2019-01-17T00:41:20.273Z,1.07
2019-01-17T00:44:14.113Z,0.90
2019-01-17T00:47:08.052Z,1.10
2019-01-17T00:49:58.846Z,1.00
2019-01-17T00:52:46.857Z,1.00
2019-01-17T00:55:52.809Z,0.90
2019-01-17T00:58:49.870Z,1.70
2019-01-17T01:01:46.929Z,1.10
2019-01-17T01:04:30.254Z,1.43
2019-01-17T01:07:33.274Z,1.13
2019-01-17T01:10:32.954Z,1.50
2019-01-17T01:13:19.391Z,1.03
2019-01-17T01:16:11.189Z,1.07
2019-01-17T01:18:48.013Z,1.20
2019-01-17T01:21:42.371Z,1.47
2019-01-17T01:24:39.682Z,1.10
2019-01-17T01:27:39.953Z,1.20
2019-01-17T01:30:29.286Z,1.90
2019-01-17T01:33:17.276Z,1.23
2019-01-17T01:36:08.286Z,1.50
2019-01-17T01:39:02.034Z,1.67
2019-01-17T01:41:52.696Z,1.93
2019-01-17T01:47:59.283Z,2.00
2019-01-17T01:50:59.373Z,1.83
2019-01-17T01:53:28.381Z,1.77
2019-01-17T01:55:57.448Z,2.27
2019-01-17T01:58:26.483Z,1.70
2019-01-17T02:00:55.538Z,1.90
2019-01-17T02:03:24.586Z,1.87
2019-01-17T02:05:53.634Z,1.97
2019-01-17T02:08:22.631Z,2.10
2019-01-17T02:10:51.673Z,1.87
2019-01-17T02:13:20.693Z,2.70
2019-01-17T02:15:49.745Z,2.40
2019-01-17T02:18:21.546Z,2.23
2019-01-17T02:20:50.854Z,2.50
2019-01-17T02:23:19.895Z,2.63
2019-01-17T02:25:48.971Z,2.80
2019-01-17T02:28:17.931Z,2.63
2019-01-17T02:31:06.071Z,2.63
2019-01-17T02:33:35.050Z,3.67
2019-01-17T02:36:04.081Z,2.97
2019-01-17T02:38:33.145Z,3.73
2019-01-17T02:41:02.202Z,3.23
2019-01-17T02:43:31.246Z,4.33
2019-01-17T02:46:00.250Z,4.83
2019-01-17T02:48:29.302Z,4.43
2019-01-17T02:50:58.282Z,5.03
2019-01-17T02:53:27.358Z,5.10
2019-01-17T02:55:56.339Z,4.97
2019-01-17T02:58:25.438Z,5.47
2019-01-17T03:00:54.493Z,5.10
2019-01-17T03:03:23.527Z,6.30
2019-01-17T03:05:52.570Z,5.17
2019-01-17T03:08:21.662Z,5.53
2019-01-17T03:10:50.719Z,6.33
2019-01-17T03:13:19.798Z,5.57
2019-01-17T03:15:48.775Z,6.00
2019-01-17T03:18:17.810Z,5.70
2019-01-17T03:20:46.860Z,6.17
2019-01-17T03:23:15.829Z,6.23
2019-01-17T03:25:44.895Z,6.33
2019-01-17T03:28:13.858Z,5.17
2019-01-17T03:30:42.923Z,5.57
2019-01-17T03:33:12.015Z,5.43
2019-01-17T03:35:41.040Z,5.13
2019-01-17T03:38:10.098Z,5.23
2019-01-17T03:40:39.095Z,5.10
2019-01-17T03:43:08.135Z,5.20
2019-01-17T03:45:37.198Z,5.20
2019-01-17T03:48:06.227Z,5.80
2019-01-17T03:50:35.290Z,6.33
2019-01-17T03:53:04.270Z,5.00
2019-01-17T03:55:33.321Z,5.73
2019-01-17T03:58:02.438Z,5.73
2019-01-17T04:00:31.566Z,4.93
2019-01-17T04:03:00.664Z,4.73
2019-01-17T04:05:29.697Z,4.67
2019-01-17T04:07:58.779Z,4.77
2019-01-17T04:10:27.834Z,4.90
2019-01-17T04:12:56.829Z,5.13
2019-01-17T04:15:25.910Z,5.83
2019-01-17T04:17:54.866Z,5.90
2019-01-17T04:20:23.921Z,5.70
2019-01-17T04:22:52.898Z,5.20
2019-01-17T04:25:23.506Z,5.70
2019-01-17T04:27:52.646Z,6.43
2019-01-17T04:30:21.610Z,5.97
2019-01-17T04:32:50.590Z,6.90
2019-01-17T04:35:19.698Z,7.40
2019-01-17T04:37:48.753Z,7.10
2019-01-17T04:40:17.801Z,7.53
2019-01-17T04:42:46.788Z,7.40
2019-01-17T04:45:15.846Z,7.93
2019-01-17T04:47:44.803Z,7.20
2019-01-17T04:50:14.565Z,9.40
2019-01-17T04:52:43.606Z,8.77
2019-01-17T04:55:13.031Z,8.83
2019-01-17T04:57:41.994Z,8.80
2019-01-17T05:00:13.977Z,7.97
2019-01-17T05:02:43.214Z,9.33
2019-01-17T05:05:12.269Z,9.03
2019-01-17T05:07:41.315Z,11.27
2019-01-17T05:10:10.854Z,9.73
2019-01-17T05:12:39.901Z,9.10
2019-01-17T05:15:09.050Z,9.40
2019-01-17T05:17:38.115Z,10.93
2019-01-17T05:20:09.998Z,10.43
2019-01-17T05:22:39.111Z,11.17
2019-01-17T05:25:12.477Z,11.17
2019-01-17T05:27:38.979Z,12.70
2019-01-17T05:30:10.790Z,11.53
2019-01-17T05:32:39.957Z,12.60
2019-01-17T05:35:09.064Z,12.40
2019-01-17T05:37:38.058Z,12.30
2019-01-17T05:40:09.650Z,12.60
2019-01-17T05:42:38.708Z,12.80
2019-01-17T05:45:07.782Z,12.13
2019-01-17T05:47:36.862Z,12.10
2019-01-17T05:50:06.931Z,14.17
2019-01-17T05:52:35.994Z,12.97
2019-01-17T05:55:05.673Z,13.03
2019-01-17T05:57:34.708Z,13.27
2019-01-17T06:00:04.462Z,14.10
2019-01-17T06:02:33.552Z,13.50
2019-01-17T06:05:02.518Z,15.13
2019-01-17T06:11:03.674Z,13.87
2019-01-17T06:13:32.855Z,14.37
2019-01-17T06:16:02.202Z,13.73
2019-01-17T06:18:31.289Z,14.20
2019-01-17T06:21:00.263Z,15.37
2019-01-17T06:23:29.367Z,14.33
2019-01-17T06:25:58.442Z,15.63
2019-01-17T06:28:27.494Z,14.83
2019-01-17T06:30:56.506Z,13.13
2019-01-17T06:33:25.571Z,14.90
2019-01-17T06:35:54.554Z,13.93
2019-01-17T06:38:23.618Z,16.30
2019-01-17T06:40:52.635Z,15.03
2019-01-17T06:43:21.676Z,15.33
2019-01-17T06:45:50.718Z,17.30
2019-01-17T06:48:19.825Z,18.80
2019-01-17T06:50:48.865Z,17.30
2019-01-17T06:53:17.902Z,17.43
2019-01-17T06:55:46.981Z,17.70
2019-01-17T06:58:16.046Z,18.10
2019-01-17T07:00:45.001Z,17.47
2019-01-17T07:03:14.009Z,19.50
2019-01-17T07:05:43.062Z,20.87
2019-01-17T07:08:12.131Z,18.77
2019-01-17T07:10:41.202Z,20.30
2019-01-17T07:13:10.161Z,20.57
2019-01-17T07:15:39.209Z,21.70
2019-01-17T07:18:08.305Z,20.73
2019-01-17T07:20:37.299Z,19.90
2019-01-17T07:23:06.264Z,23.40
2019-01-17T07:25:40.879Z,23.57
2019-01-17T07:28:06.137Z,22.23
2019-01-17T07:30:35.114Z,22.70
2019-01-17T07:33:04.086Z,20.30
2019-01-17T07:35:33.133Z,21.80
2019-01-17T07:38:02.166Z,21.50
2019-01-17T07:40:31.144Z,20.83
2019-01-17T07:43:00.210Z,21.30
2019-01-17T07:45:30.342Z,21.97
2019-01-17T07:47:59.326Z,22.83
2019-01-17T07:50:28.454Z,23.17
2019-01-17T07:52:57.572Z,23.20
2019-01-17T07:55:26.558Z,24.33
2019-01-17T07:57:55.637Z,21.73
2019-01-17T08:00:24.794Z,23.53
2019-01-17T08:02:53.769Z,21.67
2019-01-17T08:05:22.850Z,23.00
2019-01-17T08:07:51.894Z,25.77
2019-01-17T08:10:20.957Z,23.83
2019-01-17T08:12:50.029Z,23.70
2019-01-17T08:15:19.074Z,23.93
2019-01-17T08:17:48.446Z,18.97
2019-01-17T08:20:22.508Z,9.00
2019-01-17T08:22:51.554Z,7.33
2019-01-17T08:25:20.647Z,7.07
2019-01-17T08:27:49.650Z,6.70
2019-01-17T08:30:21.047Z,6.10
2019-01-17T08:32:50.063Z,5.17
2019-01-17T08:35:19.159Z,6.03
2019-01-17T08:37:48.201Z,5.63
2019-01-17T08:40:20.549Z,5.60
2019-01-17T08:42:49.769Z,5.47
2019-01-17T08:45:18.818Z,5.87
2019-01-17T08:47:47.781Z,6.07
2019-01-17T08:50:16.906Z,5.53
2019-01-17T08:52:45.965Z,5.10
2019-01-17T08:55:15.001Z,5.03
2019-01-17T08:57:43.994Z,4.20
2019-01-17T09:00:15.786Z,3.37
2019-01-17T09:02:44.839Z,4.10
2019-01-17T09:05:13.812Z,3.60
2019-01-17T09:07:42.854Z,4.10
2019-01-17T09:10:14.966Z,3.93
2019-01-17T09:12:43.961Z,4.23
2019-01-17T09:15:14.063Z,4.60
2019-01-17T09:17:43.106Z,4.83
2019-01-17T09:20:13.715Z,5.10
2019-01-17T09:22:42.751Z,4.67
2019-01-17T09:25:30.897Z,5.07
2019-01-17T09:27:59.943Z,5.10
2019-01-17T09:30:28.982Z,5.27
2019-01-17T09:32:58.088Z,4.30
2019-01-17T09:38:06.651Z,4.20
2019-01-17T09:40:35.711Z,4.10
2019-01-17T09:43:04.769Z,4.17
2019-01-17T09:45:33.773Z,4.13
2019-01-17T09:48:02.747Z,3.13
2019-01-17T09:50:31.770Z,3.47
2019-01-17T09:53:00.846Z,3.67
2019-01-17T09:55:29.949Z,3.50
2019-01-17T09:57:59.009Z,5.17
2019-01-17T10:00:29.668Z,3.87
2019-01-17T10:02:58.701Z,3.67
2019-01-17T10:05:27.793Z,3.33
2019-01-17T10:07:56.884Z,2.40
2019-01-17T10:10:26.337Z,2.30
2019-01-17T10:12:55.375Z,2.10
2019-01-17T10:15:37.003Z,2.80
2019-01-17T10:18:41.598Z,2.23
2019-01-17T10:22:07.199Z,2.40
2019-01-17T10:25:10.537Z,2.30
2019-01-17T10:34:09.433Z,2.03
2019-01-17T10:37:13.209Z,2.60
2019-01-17T10:40:26.610Z,2.40
2019-01-17T10:43:25.262Z,2.17
2019-01-17T10:46:47.550Z,2.53
2019-01-17T10:49:41.205Z,2.50
2019-01-17T10:52:36.554Z,2.70
2019-01-17T10:55:45.746Z,2.20
2019-01-17T10:58:38.218Z,3.00
2019-01-17T11:02:06.377Z,2.43
2019-01-17T11:04:58.358Z,2.13
2019-01-17T11:07:42.889Z,2.70
2019-01-17T11:10:39.754Z,2.70
2019-01-17T11:14:02.438Z,2.20
2019-01-17T11:17:15.473Z,2.00
2019-01-17T11:20:28.514Z,1.63
2019-01-17T11:23:31.933Z,1.40
2019-01-17T11:26:53.869Z,1.33
2019-01-17T11:29:48.973Z,1.00
2019-01-17T11:32:52.869Z,1.43
2019-01-17T11:42:20.385Z,1.20
2019-01-17T11:45:45.769Z,1.60
2019-01-17T11:49:09.860Z,1.33
2019-01-17T11:52:18.895Z,1.40
2019-01-17T11:55:01.454Z,1.83
2019-01-17T11:58:15.105Z,1.53
2019-01-17T12:01:32.870Z,1.20
2019-01-17T12:07:01.918Z,1.50
2019-01-17T12:09:30.973Z,1.27
2019-01-17T12:12:00.035Z,1.20
2019-01-17T12:14:48.354Z,1.70
2019-01-17T12:17:17.414Z,1.70
2019-01-17T12:19:46.818Z,1.50
2019-01-17T12:22:15.872Z,1.70
2019-01-17T12:24:44.933Z,1.30
2019-01-17T12:27:14.034Z,1.50
2019-01-17T12:29:43.104Z,1.50
2019-01-17T12:32:12.224Z,2.20
2019-01-17T12:34:41.214Z,1.67
2019-01-17T12:37:10.274Z,1.77
2019-01-17T12:39:39.433Z,1.60
2019-01-17T12:42:08.909Z,1.50
2019-01-17T12:44:37.990Z,1.23
2019-01-17T12:47:07.026Z,1.27
2019-01-17T12:49:55.310Z,1.60
2019-01-17T12:52:24.343Z,1.97
2019-01-17T12:54:53.313Z,1.90
2019-01-17T12:57:22.405Z,1.43
2019-01-17T12:59:51.463Z,2.13
2019-01-17T13:02:20.860Z,1.57
2019-01-17T13:04:49.927Z,1.43
2019-01-17T13:07:19.015Z,1.63
2019-01-17T13:09:48.094Z,1.73
2019-01-17T13:12:17.078Z,2.03
2019-01-17T13:14:46.166Z,1.97
2019-01-17T13:17:15.226Z,1.27
2019-01-17T13:19:44.202Z,1.70
2019-01-17T13:22:13.370Z,1.30
2019-01-17T13:24:43.971Z,2.07
2019-01-17T13:27:13.125Z,1.27
2019-01-17T13:29:42.198Z,1.63
2019-01-17T13:32:11.302Z,1.53
2019-01-17T13:34:40.366Z,1.50
2019-01-17T13:37:09.413Z,1.47
2019-01-17T13:39:38.461Z,1.77
2019-01-17T13:42:07.534Z,1.30
2019-01-17T13:44:36.499Z,1.60
2019-01-17T13:47:05.553Z,1.43
2019-01-17T13:49:34.610Z,1.30
2019-01-17T13:52:03.725Z,2.03
2019-01-17T13:54:32.745Z,1.20
2019-01-17T13:57:07.471Z,2.30
2019-01-17T13:59:32.686Z,2.10
2019-01-17T14:02:01.778Z,1.73
2019-01-17T14:04:30.850Z,1.70
2019-01-17T14:06:59.893Z,1.73
2019-01-17T14:09:28.950Z,1.90
2019-01-17T14:11:58.005Z,1.73
2019-01-17T14:14:27.073Z,3.10
2019-01-17T14:16:56.866Z,2.10
2019-01-17T14:19:25.922Z,2.23
2019-01-17T14:21:54.990Z,2.10
2019-01-17T14:24:24.047Z,1.40
2019-01-17T14:26:53.106Z,2.00
2019-01-17T14:29:22.236Z,1.90
2019-01-17T14:31:51.342Z,2.07
2019-01-17T14:34:20.354Z,1.53
2019-01-17T14:36:49.398Z,1.60
2019-01-17T14:39:18.397Z,1.20
2019-01-17T14:41:47.475Z,1.70
2019-01-17T14:44:16.522Z,1.50
2019-01-17T14:46:45.582Z,1.50
2019-01-17T14:49:14.638Z,1.20
2019-01-17T14:51:43.697Z,1.27
2019-01-17T14:54:12.686Z,1.20
2019-01-17T14:56:41.685Z,1.13
2019-01-17T14:59:10.772Z,0.93
2019-01-17T15:01:39.829Z,1.40
2019-01-17T15:04:08.942Z,1.57
2019-01-17T15:06:37.930Z,1.07
2019-01-17T15:09:08.334Z,0.90
2019-01-17T15:11:37.353Z,1.27
2019-01-17T15:14:06.343Z,0.90
2019-01-17T15:16:35.371Z,1.30
2019-01-17T15:19:04.436Z,0.93
2019-01-17T15:21:33.411Z,1.33
2019-01-17T15:24:21.550Z,1.53
2019-01-17T15:26:50.529Z,1.50
2019-01-17T15:29:19.514Z,1.20
2019-01-17T15:31:48.569Z,1.03
2019-01-17T15:34:17.629Z,1.60
2019-01-17T15:36:46.670Z,1.47
2019-01-17T15:39:15.717Z,1.30
2019-01-17T15:41:44.744Z,1.67
2019-01-17T15:44:13.806Z,1.43
2019-01-17T15:46:42.814Z,2.63
2019-01-17T15:49:11.921Z,3.20
2019-01-17T15:51:40.973Z,1.93
2019-01-17T15:54:10.032Z,1.90
2019-01-17T15:59:23.545Z,1.67
2019-01-17T16:01:52.626Z,1.60
2019-01-17T16:04:21.714Z,1.73
2019-01-17T16:06:50.718Z,1.70
2019-01-17T16:09:19.772Z,3.07
2019-01-17T16:11:48.838Z,1.67
2019-01-17T16:14:17.837Z,1.80
2019-01-17T16:16:48.397Z,1.87
2019-01-17T16:19:17.526Z,1.40
2019-01-17T16:22:05.814Z,1.53
2019-01-17T16:24:35.026Z,1.63
2019-01-17T16:27:04.090Z,1.70
2019-01-17T16:29:33.182Z,1.60
2019-01-17T16:32:02.310Z,2.93
2019-01-17T16:34:31.421Z,1.97
2019-01-17T16:37:00.470Z,1.60
2019-01-17T16:39:29.539Z,1.60
2019-01-17T16:41:58.602Z,1.60
2019-01-17T16:44:27.665Z,2.00
2019-01-17T16:46:56.710Z,1.87
2019-01-17T16:49:25.775Z,1.50
2019-01-17T16:51:54.822Z,1.00
2019-01-17T16:54:23.862Z,1.40
2019-01-17T16:56:52.864Z,1.30
2019-01-17T16:59:21.905Z,1.13
2019-01-17T17:01:51.022Z,1.10
2019-01-17T17:04:20.018Z,1.20
2019-01-17T17:06:49.086Z,1.17
2019-01-17T17:09:18.166Z,0.93
2019-01-17T17:11:47.214Z,1.20
2019-01-17T17:14:16.318Z,1.00
2019-01-17T17:16:45.398Z,1.20
2019-01-17T17:19:14.367Z,1.00
2019-01-17T17:21:43.444Z,1.23
2019-01-17T17:24:12.534Z,1.23
2019-01-17T17:26:41.619Z,1.43
2019-01-17T17:29:10.651Z,1.40
2019-01-17T17:31:39.634Z,1.40
2019-01-17T17:34:08.753Z,1.53
2019-01-17T17:36:37.723Z,1.63
2019-01-17T17:39:08.011Z,1.90
2019-01-17T17:41:37.142Z,1.73
2019-01-17T17:44:06.212Z,1.80
2019-01-17T17:46:35.200Z,2.60
2019-01-17T17:49:04.286Z,1.90
2019-01-17T17:51:33.341Z,2.10
2019-01-17T17:54:21.553Z,3.10
2019-01-17T17:56:50.629Z,2.03
2019-01-17T17:59:19.739Z,1.87
2019-01-17T18:01:54.433Z,1.77
2019-01-17T18:04:23.454Z,1.80
2019-01-17T18:06:52.522Z,1.90
2019-01-17T18:09:21.561Z,2.33
2019-01-17T18:11:50.633Z,1.50
2019-01-17T18:14:38.770Z,1.73
2019-01-17T18:17:09.489Z,3.20
2019-01-17T18:19:38.537Z,2.23
2019-01-17T18:22:07.661Z,1.27
2019-01-17T18:24:36.743Z,1.20
2019-01-17T18:27:05.878Z,1.50
2019-01-17T18:29:35.194Z,1.80
2019-01-17T18:32:04.865Z,3.57
2019-01-17T18:34:33.868Z,1.63
2019-01-17T18:37:02.949Z,1.20
2019-01-17T18:39:32.011Z,1.20
2019-01-17T18:42:01.062Z,2.20
2019-01-17T18:44:30.042Z,1.53
2019-01-17T18:46:59.090Z,1.10
2019-01-17T18:49:28.078Z,1.10
2019-01-17T18:51:57.198Z,1.60
2019-01-17T18:54:26.261Z,2.07
2019-01-17T18:56:55.238Z,1.50
2019-01-17T18:59:24.285Z,1.30
2019-01-17T19:01:53.265Z,1.53
2019-01-17T19:04:22.292Z,1.40
2019-01-17T19:06:51.305Z,1.60
2019-01-17T19:09:20.403Z,1.23
2019-01-17T19:11:51.486Z,1.87
2019-01-17T19:14:20.540Z,1.47
2019-01-17T19:16:49.647Z,1.10
2019-01-17T19:19:18.749Z,1.20
2019-01-17T19:21:47.810Z,1.60
2019-01-17T19:24:16.889Z,1.33
2019-01-17T19:26:45.873Z,1.77
2019-01-17T19:29:14.939Z,1.10
2019-01-17T19:31:43.914Z,1.30
2019-01-17T19:34:13.018Z,1.47
2019-01-17T19:36:42.018Z,1.53
2019-01-17T19:39:12.031Z,2.50
2019-01-17T19:41:41.095Z,2.77
2019-01-17T19:44:12.163Z,1.80
2019-01-17T19:46:41.225Z,1.47
2019-01-17T19:49:10.273Z,1.97
2019-01-17T19:51:39.357Z,2.10
2019-01-17T19:54:08.413Z,1.47
2019-01-17T19:56:37.514Z,1.90
2019-01-17T19:59:06.621Z,1.50
2019-01-17T20:01:48.449Z,2.60
2019-01-17T20:04:17.538Z,1.90
2019-01-17T20:06:46.518Z,1.70
2019-01-17T20:09:17.010Z,1.97
2019-01-17T20:11:46.095Z,1.57
2019-01-17T20:14:15.142Z,3.37
2019-01-17T20:16:44.133Z,1.90
2019-01-17T20:19:13.205Z,2.53
2019-01-17T20:21:42.246Z,1.73
2019-01-17T20:24:11.335Z,2.40
2019-01-17T20:26:40.427Z,2.93
2019-01-17T20:29:09.478Z,2.90
2019-01-17T20:31:38.912Z,1.90
2019-01-17T20:34:27.146Z,1.60
2019-01-17T20:36:56.330Z,2.03
2019-01-17T20:39:25.557Z,1.80
2019-01-17T20:41:54.638Z,1.60
2019-01-17T20:44:23.687Z,1.33
2019-01-17T20:46:52.726Z,2.33
2019-01-17T20:49:21.705Z,1.20
2019-01-17T20:51:50.789Z,1.80
2019-01-17T20:54:19.763Z,1.60
2019-01-17T20:56:48.984Z,2.27
2019-01-17T20:59:18.018Z,1.80
2019-01-17T21:02:16.425Z,1.70
2019-01-17T21:04:45.531Z,1.53
2019-01-17T21:07:14.565Z,2.20
2019-01-17T21:09:43.620Z,1.80
2019-01-17T21:12:12.731Z,1.90
2019-01-17T21:14:41.792Z,1.80
2019-01-17T21:17:10.813Z,1.70
2019-01-17T21:19:41.166Z,2.40
2019-01-17T21:22:10.241Z,2.43
2019-01-17T21:24:39.233Z,2.33
2019-01-17T21:27:08.322Z,3.13
2019-01-17T21:29:37.411Z,1.90
2019-01-17T21:32:06.418Z,2.13
2019-01-17T21:34:35.471Z,2.80
2019-01-17T21:37:04.636Z,1.87
2019-01-17T21:39:33.790Z,1.50
2019-01-17T21:42:02.861Z,1.73
2019-01-17T21:44:32.046Z,3.10
2019-01-17T21:47:01.094Z,2.30
2019-01-17T21:49:30.114Z,2.57
2019-01-17T21:51:59.198Z,2.53
2019-01-17T21:54:28.198Z,2.77
2019-01-17T21:56:57.271Z,2.63
2019-01-17T21:59:26.383Z,3.27
2019-01-17T22:01:55.514Z,2.93
2019-01-17T22:04:24.485Z,3.67
2019-01-17T22:06:53.457Z,3.80
2019-01-17T22:09:22.521Z,2.90
2019-01-17T22:11:51.610Z,4.37
2019-01-17T22:14:20.682Z,3.50
2019-01-17T22:16:49.741Z,4.23
2019-01-17T22:19:18.793Z,4.03
2019-01-17T22:21:47.770Z,3.93
2019-01-17T22:24:17.113Z,4.37
2019-01-17T22:26:46.209Z,4.50
2019-01-17T22:29:15.298Z,4.47
2019-01-17T22:31:44.319Z,4.27
2019-01-17T22:34:13.404Z,3.73
2019-01-17T22:36:42.485Z,3.63
2019-01-17T22:39:11.625Z,3.70
2019-01-17T22:41:40.606Z,4.30
2019-01-17T22:44:09.769Z,4.07
2019-01-17T22:46:38.837Z,3.60
2019-01-17T22:49:07.901Z,3.73
2019-01-17T22:51:49.215Z,3.90
2019-01-17T22:54:18.271Z,5.97
2019-01-17T22:56:47.373Z,3.93
2019-01-17T22:59:16.450Z,4.73
2019-01-17T23:01:45.586Z,4.20
2019-01-17T23:04:14.723Z,5.20
2019-01-17T23:06:43.778Z,5.37
2019-01-17T23:09:13.618Z,5.50
2019-01-17T23:11:42.603Z,4.67
2019-01-17T23:14:11.590Z,4.40
2019-01-17T23:16:40.690Z,3.63
2019-01-17T23:19:09.758Z,3.40
2019-01-17T23:21:38.838Z,3.53
2019-01-17T23:24:07.821Z,3.07
2019-01-17T23:26:36.799Z,3.30
2019-01-17T23:29:05.878Z,3.83
2019-01-17T23:31:34.986Z,3.07
2019-01-17T23:34:04.074Z,2.90
2019-01-17T23:36:33.154Z,3.37
2019-01-17T23:39:02.122Z,3.43
2019-01-17T23:41:31.106Z,3.53
2019-01-17T23:44:00.185Z,3.50
2019-01-17T23:46:29.254Z,2.90
2019-01-17T23:48:58.273Z,3.77
2019-01-17T23:51:27.268Z,2.30
2019-01-17T23:53:56.343Z,2.87
2019-01-17T23:56:25.397Z,2.83
2019-01-17T23:58:54.465Z,2.37
